METAR Reports for Pennsylvania

 

KRYT - Fountain Dale, Pennsylvania, USA
Distance from station: N 63mi, 102km
Updated: Fri, 21-Jul-2017 5:16pm EDT
NOT Current
Light rain, Mist, Mostly cloudy
Light rain, Mist, Mostly cloudy
 Wind from calm
Wind: Calm
Temperature: 79°F , 26°C
Dew Point: 75°F , 24°C
Humidity: 89%
Barometer: 29.93 inHg , 1013.5 hPa
Summary: Light rain, Mist
Clouds: Mostly cloudy
Visibility: 5 miles , 8 km
Cloud details: Few Clouds 400 ft
Partly cloudy 4000 ft
Mostly cloudy 6000 ft
2017/07/21 21:16 KRYT 212116Z AUTO 00000KT 5SM -RA BR FEW004 SCT040 BKN060 26/24 A2993 RMK AO2 RAB01 P0001 TSNO $
KTHV - York, Pennsylvania, USA
Distance from station: NNE 131mi, 81km
Updated: Fri, 21-Jul-2017 5:53pm EDT
Mostly cloudy
Mostly cloudy
 
Temperature: 90°F , 32°C
Heat Index: 99°F , 37°C
Dew Point: 73°F , 23°C
Humidity: 59%
Barometer: 29.90 inHg , 1012.5 hPa
Clouds: Mostly cloudy
Visibility: 10 miles , 16 km
Cloud details: Mostly cloudy 9000 ft
2017/07/21 21:53 KTHV 212153Z AUTO 10SM BKN090 32/23 A2990 RMK AO2 SLP122 T03170233
KCXY - Harrisburg, Pennsylvania, USA
Distance from station: NNE 101mi, 163km
Updated: Fri, 21-Jul-2017 5:56pm EDT
Few Clouds
Few Clouds
 Wind from SSW
Wind: SSW 7 mph , 11 km/h
Temperature: 90°F , 32°C
Heat Index: 96°F , 36°C
Dew Point: 70°F , 21°C
Humidity: 52%
Barometer: 29.88 inHg , 1011.9 hPa
Clouds: Few Clouds
Visibility: 10 miles , 16 km
Cloud details: Few Clouds 7000 ft
2017/07/21 21:56 KCXY 212156Z 21006KT 10SM FEW070 32/21 A2988 RMK AO2 SLP118 T03220211
 
KMDT - Middletown, Pennsylvania, USA
Distance from station: NNE 102mi, 164km
Updated: Fri, 21-Jul-2017 5:56pm EDT
Overcast
Overcast
 Wind from varies
Wind: varies 5 mph , 7 km/h
Temperature: 88°F , 31°C
Heat Index: 96°F , 36°C
Dew Point: 73°F , 23°C
Humidity: 62%
Barometer: 29.87 inHg , 1011.5 hPa
Clouds: Overcast
Visibility: 10 miles , 16 km
Cloud details: Partly cloudy 8500 ft
Overcast 25000 ft
2017/07/21 21:56 KMDT 212156Z VRB04KT 10SM SCT085 OVC250 31/23 A2987 RMK AO2 SLP114 T03110228
KLNS - Lancaster, Pennsylvania, USA
Distance from station: NNE 108mi, 173km
Updated: Fri, 21-Jul-2017 5:53pm EDT
Few Clouds
Few Clouds
 Wind from W
Wind: W 6 mph , 9 km/h
Temperature: 91°F , 33°C
Heat Index: 98°F , 37°C
Dew Point: 72°F , 22°C
Humidity: 52%
Barometer: 29.89 inHg , 1012.2 hPa
Clouds: Few Clouds
Visibility: 10 miles , 16 km
Cloud details: Few Clouds 4800 ft
2017/07/21 21:53 KLNS 212153Z 26005KT 10SM FEW048 33/22 A2989 RMK AO2 SLP118 T03280217
KAOO - Altoona, Pennsylvania, USA
Distance from station: NNW 113mi, 182km
Updated: Fri, 21-Jul-2017 5:53pm EDT
Clear
Clear
 Wind from NW
Wind: NW 5 mph , 7 km/h
Temperature: 82°F , 28°C
Heat Index: 85°F , 29°C
Dew Point: 68°F , 20°C
Humidity: 62%
Barometer: 29.97 inHg , 1014.9 hPa
Clouds: Clear
Visibility: 10 miles , 16 km
2017/07/21 21:53 KAOO 212153Z AUTO 31004KT 10SM CLR 28/20 A2997 RMK AO2 SLP137 T02830200
 
KMQS - Coatesville, Pennsylvania, USA
Distance from station: NE 116mi, 186km
Updated: Fri, 21-Jul-2017 6:15pm EDT
Clear
Clear
 Wind from calm
Wind: Calm
Temperature: 86°F , 30°C
Heat Index: 93°F , 34°C
Dew Point: 73°F , 23°C
Humidity: 66%
Barometer: 29.93 inHg , 1013.5 hPa
Clouds: Clear
Visibility: 10 miles , 16 km
2017/07/21 22:15 KMQS 212215Z AUTO 00000KT 10SM CLR 30/23 A2993 RMK AO2
KMUI - Muir Aaf/Indiant, Pennsylvania, USA
Distance from station: NNE 119mi, 192km
Updated: Fri, 21-Jul-2017 5:58pm EDT
Clear
Clear
 Wind from W
Wind: W 3 mph , 6 km/h
Temperature: 88°F , 31°C
Heat Index: 95°F , 35°C
Dew Point: 72°F , 22°C
Humidity: 59%
Barometer: 29.90 inHg , 1012.5 hPa
Clouds: Clear
Visibility: 10 miles , 16 km
2017/07/21 21:58 KMUI 212158Z AUTO 28003KT 10SM CLR 31/22 A2990 RMK AO2 SLP124 T03110216
KJST - Johnstown, Pennsylvania, USA
Distance from station: NW 128mi, 206km
Updated: Fri, 21-Jul-2017 5:54pm EDT
Clear
Clear
 Wind from NW
Wind: NW 6 mph , 9 km/h
Temperature: 81°F , 27°C
Heat Index: 84°F , 29°C
Dew Point: 68°F , 20°C
Humidity: 66%
Barometer: 30.02 inHg , 1016.6 hPa
Clouds: Clear
Visibility: 10 miles , 16 km
2017/07/21 21:54 KJST 212154Z AUTO 32005KT 10SM CLR 27/20 A3002 RMK AO2 SLP146 T02720200
 
KRDG - Reading, Pennsylvania, USA
Distance from station: NE 132mi, 212km
Updated: Fri, 21-Jul-2017 5:54pm EDT
Clear
Clear
 Wind from W
Wind: W 6 mph , 9 km/h
Temperature: 90°F , 32°C
Heat Index: 99°F , 37°C
Dew Point: 73°F , 23°C
Humidity: 59%
Barometer: 29.87 inHg , 1011.5 hPa
Clouds: Clear
Visibility: 10 miles , 16 km
2017/07/21 21:54 KRDG 212154Z 26005KT 10SM CLR 32/23 A2987 RMK AO2 SLP117 T03170228
KPHL - Philadelphia, Pennsylvania, USA
Distance from station: ENE 137mi, 221km
Updated: Fri, 21-Jul-2017 5:54pm EDT
Mostly cloudy
Mostly cloudy
 Wind from W
Wind: W 10 mph , 17 km/h
Temperature: 91°F , 33°C
Heat Index: 95°F , 35°C
Dew Point: 68°F , 20°C
Humidity: 46%
Barometer: 29.87 inHg , 1011.5 hPa
Clouds: Mostly cloudy
Visibility: 10 miles , 16 km
Cloud details: Few Clouds 5500 ft
Mostly cloudy 25000 ft
2017/07/21 21:54 KPHL 212154Z 26009KT 10SM FEW055 BKN250 33/20 A2987 RMK AO2 SLP114 T03330200
KPTW - Pottstown, Pennsylvania, USA
Distance from station: NE 140mi, 225km
Updated: Fri, 21-Jul-2017 5:54pm EDT
Clear
Clear
 Wind from WSW
Wind: WSW 6 mph , 9 km/h
Temperature: 88°F , 31°C
Heat Index: 93°F , 34°C
Dew Point: 70°F , 21°C
Humidity: 55%
Barometer: 29.90 inHg , 1012.5 hPa
Clouds: Clear
Visibility: 10 miles , 16 km
2017/07/21 21:54 KPTW 212154Z AUTO 24005KT 10SM CLR 31/21 A2990 RMK AO2 SLP119 T03110206
 
KSEG - Selinsgrove, Pennsylvania, USA
Distance from station: N 141mi, 227km
Updated: Fri, 21-Jul-2017 5:53pm EDT
Clear
Clear
 Wind from varies
Wind: varies 6 mph , 9 km/h
Temperature: 88°F , 31°C
Heat Index: 96°F , 36°C
Dew Point: 73°F , 23°C
Humidity: 62%
Barometer: 29.88 inHg , 1011.9 hPa
Clouds: Clear
Visibility: 10 miles , 16 km
2017/07/21 21:53 KSEG 212153Z AUTO VRB05KT 10SM CLR 31/23 A2988 RMK AO2 SLP116 T03060228
KUNV - State College, Pennsylvania, USA
Distance from station: N 142mi, 229km
Updated: Fri, 21-Jul-2017 5:53pm EDT
Clear
Clear
 Wind from W
Wind: W 7 mph , 11 km/h
Temperature: 86°F , 30°C
Heat Index: 88°F , 31°C
Dew Point: 66°F , 19°C
Humidity: 52%
Barometer: 29.94 inHg , 1013.9 hPa
Clouds: Clear
Visibility: 10 miles , 16 km
2017/07/21 21:53 KUNV 212153Z 27006KT 10SM SKC 30/19 A2994
KLBE - Latrobe/Westmorl, Pennsylvania, USA
Distance from station: NW 145mi, 234km
Updated: Fri, 21-Jul-2017 5:50pm EDT
Partly cloudy
Partly cloudy
 Wind from calm
Wind: Calm
Temperature: 84°F , 29°C
Heat Index: 89°F , 32°C
Dew Point: 72°F , 22°C
Humidity: 66%
Barometer: 29.97 inHg , 1014.9 hPa
Clouds: Partly cloudy
Visibility: 10 miles , 16 km
Cloud details: Partly cloudy 4000 ft
2017/07/21 21:50 KLBE 212150Z 00000KT 10SM SCT040 29/22 A2997
 
KLOM - Philly Wings F, Pennsylvania, USA
Distance from station: NE 146mi, 236km
Updated: Fri, 21-Jul-2017 6:15pm EDT
Clear
Clear
 Wind from W
Wind: W 6 mph , 9 km/h
Temperature: 88°F , 31°C
Heat Index: 93°F , 34°C
Dew Point: 70°F , 21°C
Humidity: 55%
Barometer: 29.90 inHg , 1012.5 hPa
Clouds: Clear
Visibility: 10 miles , 16 km
2017/07/21 22:15 KLOM 212215Z AUTO 26005KT 10SM CLR 31/21 A2990 RMK AO1
KIDI - Indiana/Stewart, Pennsylvania, USA
Distance from station: NW 152mi, 245km
Updated: Fri, 21-Jul-2017 6:15pm EDT
Clear
Clear
 Wind from varies
Wind: varies 6 mph , 9 km/h
Temperature: 84°F , 29°C
Heat Index: 88°F , 31°C
Dew Point: 70°F , 21°C
Humidity: 62%
Barometer: 29.99 inHg , 1015.6 hPa
Clouds: Clear
Visibility: 10 miles , 16 km
2017/07/21 22:15 KIDI 212215Z AUTO VRB05KT 10SM CLR 29/21 A2999 RMK A01
KGKJ - Meadville, Pennsylvania, USA
Distance from station: NW 152mi, 245km
Updated: Fri, 21-Jul-2017 5:53pm EDT
Mostly cloudy
Mostly cloudy
 Wind from N
Wind: N 8 mph , 13 km/h
Temperature: 82°F , 28°C
Heat Index: 86°F , 30°C
Dew Point: 72°F , 22°C
Humidity: 70%
Barometer: 29.98 inHg , 1015.2 hPa
Clouds: Mostly cloudy
Visibility: 10 miles , 16 km
Cloud details: Few Clouds 3200 ft
Mostly cloudy 4000 ft
2017/07/21 21:53 KGKJ 212153Z AUTO 35007KT 10SM FEW032 BKN040 28/22 A2998 RMK AO2 SLP139 T02830222 TSNO
 
KPNE - Philadelphia/Ne, Pennsylvania, USA
Distance from station: NE 155mi, 250km
Updated: Fri, 21-Jul-2017 5:54pm EDT
Clear
Clear
 Wind from WSW
Wind: WSW 10 mph , 17 km/h
Temperature: 91°F , 33°C
Heat Index: 96°F , 36°C
Dew Point: 70°F , 21°C
Humidity: 49%
Barometer: 29.88 inHg , 1011.9 hPa
Clouds: Clear
Visibility: 10 miles , 16 km
2017/07/21 21:54 KPNE 212154Z 25009KT 10SM CLR 33/21 A2988 RMK AO2 SLP115 T03330206
KUKT - Quakertown Arp, Pennsylvania, USA
Distance from station: NE 156mi, 250km
Updated: Fri, 21-Jul-2017 6:15pm EDT
Clear
Clear
 Wind from W
Wind: W 6 mph , 9 km/h
Temperature: 88°F , 31°C
Heat Index: 95°F , 35°C
Dew Point: 72°F , 22°C
Humidity: 59%
Barometer: 29.91 inHg , 1012.9 hPa
Clouds: Clear
Visibility: 10 miles , 16 km
2017/07/21 22:15 KUKT 212215Z AUTO 26005KT 10SM CLR 31/22 A2991 RMK AO1
KXLL - Allentown Queen, Pennsylvania, USA
Distance from station: NE 159mi, 255km
Updated: Fri, 21-Jul-2017 6:15pm EDT
Clear
Clear
 Wind from WSW
Wind: WSW 9 mph , 15 km/h
Temperature: 88°F , 31°C
Heat Index: 92°F , 33°C
Dew Point: 68°F , 20°C
Humidity: 52%
Barometer: 29.90 inHg , 1012.5 hPa
Clouds: Clear
Visibility: 10 miles , 16 km
2017/07/21 22:15 KXLL 212215Z AUTO 24008KT 10SM CLR 31/20 A2990 RMK AO2
 
KDYL - Doylestown, Pennsylvania, USA
Distance from station: NE 161mi, 259km
Updated: Fri, 21-Jul-2017 5:54pm EDT
Clear
Clear
 Wind from varies
Wind: varies 7 mph , 11 km/h
Temperature: 90°F , 32°C
Heat Index: 96°F , 36°C
Dew Point: 70°F , 21°C
Humidity: 52%
Barometer: 29.88 inHg , 1011.9 hPa
Clouds: Clear
Visibility: 10 miles , 16 km
2017/07/21 21:54 KDYL 212154Z AUTO VRB06KT 10SM CLR 32/21 A2988 RMK AO2 SLP110 T03170206
KFIG - Clearfield, Pennsylvania, USA
Distance from station: NNW 163mi, 262km
Updated: Fri, 21-Jul-2017 5:54pm EDT
Clear
Clear
 Wind from W
Wind: W 6 mph , 9 km/h
Temperature: 86°F , 30°C
Heat Index: 88°F , 31°C
Dew Point: 64°F , 18°C
Humidity: 49%
Barometer: 29.96 inHg , 1014.6 hPa
Clouds: Clear
Visibility: 10 miles , 16 km
2017/07/21 21:54 KFIG 212154Z AUTO 28005KT 10SM CLR 30/18 A2996 RMK AO2 SLP132 T03000183
KABE - Allentown, Pennsylvania, USA
Distance from station: NE 164mi, 264km
Updated: Fri, 21-Jul-2017 5:51pm EDT
Clear
Clear
 Wind from W
Wind: W 9 mph , 15 km/h
Temperature: 90°F , 32°C
Heat Index: 96°F , 36°C
Dew Point: 70°F , 21°C
Humidity: 52%
Barometer: 29.88 inHg , 1011.9 hPa
Clouds: Clear
Visibility: 10 miles , 16 km
2017/07/21 21:51 KABE 212151Z 26008KT 10SM CLR 32/21 A2988 RMK AO2 SLP115 T03170206
 
KIPT - Williamsport, Pennsylvania, USA
Distance from station: N 170mi, 274km
Updated: Fri, 21-Jul-2017 5:54pm EDT
Few Clouds
Few Clouds
 Wind from WSW
Wind: WSW 8 mph , 13 km/h
Temperature: 90°F , 32°C
Heat Index: 96°F , 36°C
Dew Point: 70°F , 21°C
Humidity: 52%
Barometer: 29.86 inHg , 1011.2 hPa
Clouds: Few Clouds
Visibility: 10 miles , 16 km
Cloud details: Few Clouds 5500 ft
2017/07/21 21:54 KIPT 212154Z 24007KT 10SM FEW055 32/21 A2986 RMK AO2 SLP107 T03220211 $
KAGC - Pittsburg/West Mifflin, Pennsylvania, USA
Distance from station: NW 170mi, 273km
Updated: Fri, 21-Jul-2017 5:53pm EDT
Few Clouds
Few Clouds
 Wind from SSE
Wind: SSE 3 mph , 6 km/h
Temperature: 84°F , 29°C
Heat Index: 88°F , 31°C
Dew Point: 70°F , 21°C
Humidity: 62%
Barometer: 29.95 inHg , 1014.2 hPa
Clouds: Few Clouds
Visibility: 10 miles , 16 km
Cloud details: Few Clouds 4100 ft
2017/07/21 21:53 KAGC 212153Z 16003KT 10SM FEW041 29/21 A2995 RMK AO2 SLP137 T02940211
KAFJ - Washington, Pennsylvania, USA
Distance from station: WNW 176mi, 284km
Updated: Fri, 21-Jul-2017 6:15pm EDT
Partly cloudy
Partly cloudy
 Wind from SW
Wind: SW 7 mph , 11 km/h
Temperature: 82°F , 28°C
Heat Index: 89°F , 32°C
Dew Point: 75°F , 24°C
Humidity: 79%
Barometer: 29.97 inHg , 1014.9 hPa
Clouds: Partly cloudy
Visibility: 10 miles , 16 km
Cloud details: Partly cloudy 2700 ft
Partly cloudy 3300 ft
2017/07/21 22:15 KAFJ 212215Z AUTO 23006KT 10SM SCT027 SCT033 28/24 A2997 RMK AO1
 
KDUJ - DuBois/Falls Creek, Pennsylvania, USA
Distance from station: NNW 180mi, 290km
Updated: Fri, 21-Jul-2017 5:53pm EDT
Clear
Clear
 Wind from NW
Wind: NW 6 mph , 9 km/h
Temperature: 82°F , 28°C
Heat Index: 83°F , 28°C
Dew Point: 63°F , 17°C
Humidity: 51%
Barometer: 29.97 inHg , 1014.9 hPa
Clouds: Clear
Visibility: 10 miles , 16 km
2017/07/21 21:53 KDUJ 212153Z AUTO 31005KT 10SM CLR 28/17 A2997 RMK AO2 SLP133 T02830172
KBTP - Butler, Pennsylvania, USA
Distance from station: NW 190mi, 306km
Updated: Fri, 21-Jul-2017 6:15pm EDT
Partly cloudy
Partly cloudy
 Wind from WSW
Wind: WSW 6 mph , 9 km/h
Temperature: 88°F , 31°C
Heat Index: 93°F , 34°C
Dew Point: 70°F , 21°C
Humidity: 55%
Barometer: 29.95 inHg , 1014.2 hPa
Clouds: Partly cloudy
Visibility: 10 miles , 16 km
Cloud details: Partly cloudy 6000 ft
2017/07/21 22:15 KBTP 212215Z AUTO 24005KT 10SM SCT060 31/21 A2995 RMK AO1
KPIT - Pittsburg, Pennsylvania, USA
Distance from station: NW 191mi, 307km
Updated: Fri, 21-Jul-2017 5:51pm EDT
Mostly cloudy
Mostly cloudy
 Wind from W
Wind: W 8 mph , 13 km/h
Temperature: 88°F , 31°C
Heat Index: 93°F , 34°C
Dew Point: 70°F , 21°C
Humidity: 55%
Barometer: 29.96 inHg , 1014.6 hPa
Clouds: Mostly cloudy
Visibility: 10 miles , 16 km
Cloud details: Few Clouds 4200 ft
Partly cloudy 15000 ft
Mostly cloudy 25000 ft
2017/07/21 21:51 KPIT 212151Z 27007KT 10SM FEW042 SCT150 BKN250 31/21 A2996 RMK AO2 SLP139 T03060206
 
KMPO - Mount Pokono, Pennsylvania, USA
Distance from station: NNE 193mi, 310km
Updated: Fri, 21-Jul-2017 5:53pm EDT
Mostly cloudy
Mostly cloudy
 Wind from W
Wind: W 10 mph , 17 km/h
Temperature: 81°F , 27°C
Heat Index: 83°F , 28°C
Dew Point: 66°F , 19°C
Humidity: 62%
Barometer: 29.96 inHg , 1014.6 hPa
Clouds: Mostly cloudy
Visibility: 10 miles , 16 km
Cloud details: Mostly cloudy 4000 ft
Mostly cloudy 4900 ft
Mostly cloudy 6000 ft
2017/07/21 21:53 KMPO 212153Z AUTO 27009KT 10SM BKN040 BKN049 BKN060 27/19 A2996 RMK AO2 SLP133 T02670194
KAVP - Wilkes-Barre, Pennsylvania, USA
Distance from station: NNE 196mi, 315km
Updated: Fri, 21-Jul-2017 5:54pm EDT
Few Clouds
Few Clouds
 Wind from SW
Wind: SW 13 mph , 20 km/h
Temperature: 84°F , 29°C
Heat Index: 88°F , 31°C
Dew Point: 70°F , 21°C
Humidity: 62%
Barometer: 29.90 inHg , 1012.5 hPa
Clouds: Few Clouds
Visibility: 10 miles , 16 km
Cloud details: Few Clouds 4500 ft
Few Clouds 6000 ft
2017/07/21 21:54 KAVP 212154Z 23011KT 10SM FEW045 FEW060 29/21 A2990 RMK AO2 SLP116 T02940206
KBVI - Beaverfalls, Pennsylvania, USA
Distance from station: NW 208mi, 334km
Updated: Fri, 21-Jul-2017 5:47pm EDT
Partly cloudy
Partly cloudy
 Wind from WSW
Wind: WSW 6 mph , 9 km/h
Temperature: 88°F , 31°C
Heat Index: 92°F , 33°C
Dew Point: 68°F , 20°C
Humidity: 52%
Barometer: 29.96 inHg , 1014.6 hPa
Clouds: Partly cloudy
Visibility: 10 miles , 16 km
Cloud details: Partly cloudy 4900 ft
2017/07/21 21:47 KBVI 212147Z 24005KT 10SM SCT049 31/20 A2996
 
KBFD - Bradford, Pennsylvania, USA
Distance from station: NNW 216mi, 347km
Updated: Fri, 21-Jul-2017 5:53pm EDT
Few Clouds
Few Clouds
 Wind from NW
Wind: NW 9 mph , 15 km/h
Temperature: 81°F , 27°C
Heat Index: 83°F , 28°C
Dew Point: 66°F , 19°C
Humidity: 62%
Barometer: 29.99 inHg , 1015.6 hPa
Clouds: Few Clouds
Visibility: 10 miles , 16 km
Cloud details: Few Clouds 4500 ft
2017/07/21 21:53 KBFD 212153Z AUTO 31008KT 10SM FEW045 27/19 A2999 RMK AO2 SLP138 T02720189
KFKL - Franklin, Pennsylvania, USA
Distance from station: NW 218mi, 352km
Updated: Fri, 21-Jul-2017 6:15pm EDT
Clear
Clear
 Wind from NW
Wind: NW 3 mph , 6 km/h
Temperature: 82°F , 28°C
Heat Index: 84°F , 29°C
Dew Point: 66°F , 19°C
Humidity: 58%
Barometer: 29.98 inHg , 1015.2 hPa
Clouds: Clear
Visibility: 10 miles , 16 km
2017/07/21 22:15 KFKL 212215Z AUTO 31003KT 10SM CLR 28/19 A2998 RMK AO1
KUCP - New Castle Muni, Pennsylvania, USA
Distance from station: NW 221mi, 355km
Updated: Fri, 21-Jul-2017 5:56pm EDT
Clear
Clear
 Wind from SW
Wind: SW 6 mph , 9 km/h
Temperature: 88°F , 31°C
Heat Index: 93°F , 34°C
Dew Point: 70°F , 21°C
Humidity: 55%
Barometer: 29.95 inHg , 1014.2 hPa
Clouds: Clear
Visibility: 10 miles , 16 km
2017/07/21 21:56 KUCP 212156Z AUTO 23005KT 10SM CLR 31/21 A2995 RMK AO2 SLP147 T03110211
 
KERI - Erie, Pennsylvania, USA
Distance from station: NW 269mi, 432km
Updated: Fri, 21-Jul-2017 5:51pm EDT
Clear
Clear
 Wind from WNW
Wind: WNW 5 mph , 7 km/h
Temperature: 79°F , 26°C
Dew Point: 70°F , 21°C
Humidity: 74%
Barometer: 29.95 inHg , 1014.2 hPa
Clouds: Clear
Visibility: 10 miles , 16 km
2017/07/21 21:51 KERI 212151Z AUTO 29004KT 10SM CLR 26/21 A2995 RMK AO2 SLP138 T02610206